Time;durP1;ratioP1;P1;durP2;ratioP2;P2;SDS_P1;SDS_P2;PMS_P1;PMS_P2;Temp;Humidity;BMP_temperature;BMP_pressure;BME280_temperature;BME280_humidity;BME280_pressure;Samples;Min_cycle;Max_cycle;Signal;HPM_P1;HPM_P2
2020/12/21 00:01:43;;;;;;;0.70;0.60;;;6.90;99.90;;;7.20;100.00;-9833.13;5028444;28;20422;-69
2020/12/21 00:04:10;;;;;;;0.70;0.60;;;6.90;99.90;;;7.13;100.00;-10017.38;5012817;28;20485;-69
2020/12/21 00:06:37;;;;;;;0.70;0.60;;;6.70;99.90;;;7.00;100.00;-10166.00;5013146;28;20453;-69
2020/12/21 00:09:05;;;;;;;0.80;0.80;;;6.60;99.90;;;6.93;100.00;-9940.44;5013234;28;20899;-69
2020/12/21 00:11:34;;;;;;;0.60;0.50;;;6.60;99.90;;;6.71;100.00;-9933.38;5012681;28;20470;-71
2020/12/21 00:14:01;;;;;;;0.60;0.60;;;6.50;99.90;;;6.55;100.00;-9682.16;5013874;28;20464;-71
2020/12/21 00:16:39;;;;;;;0.60;0.50;;;6.30;99.90;;;6.40;100.00;-9543.47;5012814;28;20454;-69
2020/12/21 00:19:07;;;;;;;0.60;0.60;;;6.20;99.90;;;6.22;100.00;-9342.22;5012271;28;20797;-69
2020/12/21 00:21:35;;;;;;;0.60;0.50;;;6.00;99.90;;;6.13;100.00;-8949.56;5013308;28;20402;-69
2020/12/21 00:24:03;;;;;;;0.60;0.57;;;5.80;99.90;;;6.05;100.00;-9018.81;5013934;28;20485;-69
2020/12/21 00:26:31;;;;;;;0.67;0.60;;;5.80;99.90;;;5.99;100.00;-9008.34;5016175;28;20449;-69
2020/12/21 00:28:59;;;;;;;0.70;0.60;;;5.80;99.90;;;6.08;100.00;-8901.75;5004755;28;20450;-69
2020/12/21 00:31:27;;;;;;;0.70;0.60;;;5.70;99.90;;;6.14;100.00;-9024.56;5003183;28;20890;-71
2020/12/21 00:33:56;;;;;;;0.70;0.60;;;5.80;99.90;;;6.13;100.00;-9313.97;5016223;28;20512;-71
2020/12/21 00:36:24;;;;;;;0.63;0.57;;;5.80;99.90;;;6.01;100.00;-9879.19;5016419;28;20442;-69
2020/12/21 00:38:52;;;;;;;0.70;0.60;;;5.70;99.90;;;6.09;100.00;-10072.06;5016165;28;20458;-69
2020/12/21 00:41:21;;;;;;;0.70;0.60;;;5.70;99.90;;;5.92;100.00;-10733.69;5016296;28;20448;-69
2020/12/21 00:43:52;;;;;;;0.60;0.50;;;5.60;99.90;;;5.96;100.00;-11145.56;5014636;28;20437;-69
2020/12/21 00:46:21;;;;;;;0.70;0.60;;;5.50;99.90;;;5.83;100.00;-11832.00;5031373;28;20442;-69
2020/12/21 00:48:48;;;;;;;0.67;0.60;;;5.60;99.90;;;5.92;100.00;-12209.53;5015480;28;20480;-69
2020/12/21 00:51:16;;;;;;;0.60;0.60;;;5.60;99.90;;;5.85;100.00;-12946.16;5020517;28;20934;-71
2020/12/21 00:53:44;;;;;;;0.60;0.50;;;5.60;99.90;;;5.81;100.00;-13541.00;5016284;28;20957;-71
2020/12/21 00:56:12;;;;;;;0.70;0.60;;;5.60;99.90;;;5.66;100.00;-14362.81;5015826;28;20434;-69
2020/12/21 00:58:40;;;;;;;0.60;0.60;;;5.50;99.90;;;5.65;100.00;-14960.09;5015608;28;20452;-69
2020/12/21 01:01:11;;;;;;;0.63;0.60;;;5.50;99.90;;;5.62;100.00;-15691.25;5016054;28;20430;-71
2020/12/21 01:03:52;;;;;;;1.00;0.90;;;5.40;99.90;;;5.74;100.00;-16293.34;5000718;28;20472;-71
2020/12/21 01:06:20;;;;;;;0.70;0.60;;;5.50;99.90;;;5.89;100.00;-16674.63;5010423;28;20453;-69
2020/12/21 01:08:54;;;;;;;0.60;0.50;;;5.70;99.90;;;6.01;100.00;-17174.84;5015985;28;20432;-69
2020/12/21 01:11:21;;;;;;;0.70;0.60;;;5.80;99.90;;;5.98;100.00;-17540.13;5015239;28;20465;-69
2020/12/21 01:13:49;;;;;;;0.60;0.50;;;5.80;99.90;;;6.04;100.00;-17879.81;5015847;28;20792;-69
2020/12/21 01:16:19;;;;;;;0.70;0.60;;;5.80;99.90;;;5.92;100.00;-18319.88;5015872;28;20984;-69
2020/12/21 01:18:48;;;;;;;0.60;0.60;;;5.80;99.90;;;5.91;100.00;-18628.22;5012794;28;20508;-69
2020/12/21 01:21:26;;;;;;;0.60;0.60;;;5.70;99.90;;;5.89;100.00;-18948.59;4998456;28;20426;-69
2020/12/21 01:23:54;;;;;;;0.60;0.60;;;5.70;99.90;;;6.02;100.00;-19041.34;4995803;28;20415;-69
2020/12/21 01:26:21;;;;;;;0.60;0.50;;;5.70;99.90;;;5.84;100.00;-19397.31;5009169;28;20476;-69
2020/12/21 01:28:49;;;;;;;0.70;0.60;;;5.60;99.90;;;5.83;100.00;-19601.06;5000721;28;20815;-69
2020/12/21 01:31:17;;;;;;;0.70;0.60;;;5.60;99.90;;;5.91;100.00;-19806.91;5004448;28;20914;-69
2020/12/21 01:33:45;;;;;;;0.60;0.50;;;5.60;99.90;;;5.96;100.00;-19982.28;5013830;28;20473;-69
2020/12/21 01:36:13;;;;;;;0.60;0.53;;;5.70;99.90;;;5.98;100.00;-20099.81;5029041;28;20532;-69
2020/12/21 01:38:40;;;;;;;0.60;0.60;;;5.70;99.90;;;5.98;100.00;-20256.31;5015038;28;20472;-69
2020/12/21 01:41:06;;;;;;;0.60;0.50;;;5.80;99.90;;;6.23;100.00;-20223.22;5015367;28;20441;-69
2020/12/21 01:43:33;;;;;;;0.70;0.60;;;5.90;99.90;;;6.03;100.00;-20344.69;5014978;28;20481;-69
2020/12/21 01:46:09;;;;;;;0.60;0.60;;;5.80;99.90;;;5.99;100.00;-20435.59;5013981;28;20499;-69
2020/12/21 01:48:37;;;;;;;0.60;0.60;;;5.80;99.90;;;5.86;100.00;-20553.88;5014774;28;20854;-69
2020/12/21 01:51:05;;;;;;;0.60;0.50;;;5.70;99.90;;;5.81;100.00;-20667.09;5014996;28;20485;-69
2020/12/21 01:53:37;;;;;;;0.60;0.60;;;5.60;99.90;;;5.88;100.00;-20738.34;5014686;28;20830;-69
2020/12/21 01:56:06;;;;;;;0.60;0.60;;;5.60;99.90;;;5.85;100.00;-20834.47;5014908;28;20411;-69
2020/12/21 01:58:33;;;;;;;0.60;0.60;;;5.60;99.90;;;6.00;100.00;-20845.47;5015134;28;20537;-69
2020/12/21 02:01:03;;;;;;;0.70;0.60;;;5.80;99.90;;;6.08;100.00;-20847.56;5012615;28;20481;-69
2020/12/21 02:03:31;;;;;;;0.60;0.60;;;5.80;99.90;;;6.03;100.00;-20846.31;5014426;28;20473;-69
2020/12/21 02:05:58;;;;;;;0.60;0.53;;;5.80;99.90;;;6.06;100.00;-20847.13;5014278;28;20472;-69
2020/12/21 02:08:24;;;;;;;0.60;0.60;;;5.80;99.90;;;6.10;100.00;-20848.25;5005469;28;20446;-69
2020/12/21 02:10:51;;;;;;;0.60;0.50;;;5.80;99.90;;;6.03;100.00;-20846.31;4995696;28;20935;-69
2020/12/21 02:13:18;;;;;;;1.47;1.37;;;5.80;99.90;;;5.89;100.00;-20842.41;5002319;28;20882;-69
2020/12/21 02:15:45;;;;;;;0.63;0.60;;;5.60;99.90;;;5.75;100.00;-20838.78;5014408;28;20450;-69
2020/12/21 02:18:13;;;;;;;0.60;0.60;;;5.50;99.90;;;5.75;100.00;-20838.66;5014407;28;20450;-69
2020/12/21 02:20:41;;;;;;;0.60;0.53;;;5.50;99.90;;;5.75;100.00;-20838.78;5012129;28;20454;-70
2020/12/21 02:23:08;;;;;;;0.70;0.60;;;5.50;99.90;;;5.76;100.00;-20839.06;5011079;28;20458;-70
2020/12/21 02:25:35;;;;;;;0.60;0.60;;;5.50;99.90;;;5.74;100.00;-20838.38;5014109;28;20606;-69
2020/12/21 02:28:02;;;;;;;0.70;0.60;;;5.50;99.90;;;5.58;100.00;-20834.06;5014627;28;20449;-69
2020/12/21 02:30:29;;;;;;;0.60;0.50;;;5.40;99.90;;;5.56;100.00;-20833.50;5014126;28;20460;-69
2020/12/21 02:32:56;;;;;;;0.70;0.60;;;5.40;99.90;;;5.89;100.00;-20842.56;5014068;28;20911;-69
2020/12/21 02:35:23;;;;;;;0.60;0.50;;;5.50;99.90;;;6.28;100.00;-20853.25;5013664;28;20865;-69
2020/12/21 02:37:51;;;;;;;0.70;0.60;;;6.00;99.90;;;6.59;100.00;-20861.47;5014027;28;20414;-69
2020/12/21 02:40:17;;;;;;;0.70;0.60;;;6.30;99.90;;;6.81;100.00;-20867.44;5014070;28;20445;-69
2020/12/21 02:42:44;;;;;;;0.60;0.60;;;6.50;99.90;;;6.93;100.00;-20870.78;5013868;28;20457;-69
2020/12/21 02:45:11;;;;;;;0.60;0.60;;;6.60;99.90;;;6.91;100.00;-20870.22;5013945;28;21015;-69
2020/12/21 02:47:38;;;;;;;0.60;0.50;;;6.60;99.90;;;6.78;100.00;-20866.88;5013771;28;20433;-69
2020/12/21 02:50:05;;;;;;;0.60;0.60;;;6.40;99.90;;;6.84;100.00;-20868.28;5013626;28;20512;-69
2020/12/21 02:52:32;;;;;;;0.60;0.50;;;6.50;99.90;;;6.84;100.00;-20868.41;5013784;28;20556;-69
2020/12/21 02:55:00;;;;;;;0.60;0.60;;;6.50;99.90;;;6.91;100.00;-20870.22;5013539;28;20444;-69
2020/12/21 02:57:26;;;;;;;0.60;0.60;;;6.50;99.90;;;6.91;100.00;-20870.22;5013687;28;20532;-69
2020/12/21 02:59:54;;;;;;;0.60;0.60;;;6.50;99.90;;;6.92;100.00;-20870.63;5014152;28;20484;-69
2020/12/21 03:02:20;;;;;;;0.60;0.50;;;6.50;99.90;;;6.84;100.00;-20868.28;5013992;28;20426;-69
2020/12/21 03:05:05;;;;;;;0.60;0.60;;;6.40;99.90;;;6.73;100.00;-20865.50;5011632;28;20552;-69
2020/12/21 03:07:32;;;;;;;0.60;0.50;;;6.30;99.90;;;6.59;100.00;-20861.59;5014055;28;20414;-69
2020/12/21 03:10:00;;;;;;;0.70;0.60;;;6.20;99.90;;;6.43;100.00;-20857.28;5014085;28;20529;-69
2020/12/21 03:12:27;;;;;;;0.60;0.50;;;6.10;99.90;;;6.29;100.00;-20853.41;5013407;28;20487;-69
2020/12/21 03:14:54;;;;;;;0.60;0.50;;;5.90;99.90;;;6.16;100.00;-20849.78;5013011;28;20422;-69
2020/12/21 03:17:21;;;;;;;0.60;0.60;;;5.80;99.90;;;6.04;100.00;-20846.59;5000286;28;20532;-69
2020/12/21 03:19:47;;;;;;;0.60;0.50;;;5.70;99.90;;;5.90;100.00;-20842.69;5013417;28;20505;-70
2020/12/21 03:22:14;;;;;;;0.70;0.60;;;5.60;99.90;;;5.78;100.00;-20839.47;5011505;28;20422;-69
2020/12/21 03:24:42;;;;;;;0.63;0.60;;;5.50;99.90;;;5.75;100.00;-20838.66;5013942;28;20507;-69
2020/12/21 03:27:09;;;;;;;0.63;0.60;;;5.40;99.90;;;5.74;100.00;-20838.38;5012375;28;20517;-69
2020/12/21 03:29:36;;;;;;;0.60;0.60;;;5.40;99.90;;;5.66;100.00;-20836.28;5014109;28;20841;-69
2020/12/21 03:32:04;;;;;;;0.60;0.60;;;5.30;99.90;;;5.71;100.00;-20837.69;5012989;28;20557;-69
2020/12/21 03:34:31;;;;;;;0.60;0.50;;;5.40;99.90;;;5.77;100.00;-20839.22;5013788;28;20841;-69
2020/12/21 03:36:58;;;;;;;0.60;0.60;;;5.40;99.90;;;5.85;100.00;-20841.28;5012394;28;20872;-69
2020/12/21 03:39:24;;;;;;;0.70;0.60;;;5.50;99.90;;;5.90;100.00;-20842.69;5013267;28;20421;-69
2020/12/21 03:41:51;;;;;;;0.60;0.60;;;5.50;99.90;;;5.86;100.00;-20841.56;5012236;28;20457;-69
2020/12/21 03:44:19;;;;;;;0.60;0.50;;;5.50;99.90;;;5.81;100.00;-20840.47;5013374;28;20470;-69
2020/12/21 03:46:46;;;;;;;0.60;0.50;;;5.50;99.90;;;5.81;100.00;-20840.47;5013228;28;20536;-69
2020/12/21 03:49:13;;;;;;;0.67;0.60;;;5.50;99.90;;;5.76;100.00;-20839.06;5012556;28;20465;-69
2020/12/21 03:51:41;;;;;;;0.60;0.60;;;5.40;99.90;;;5.80;100.00;-20840.19;5013660;28;20524;-69
2020/12/21 03:54:08;;;;;;;0.70;0.70;;;5.40;99.90;;;5.78;100.00;-20839.47;5013142;28;20493;-69
2020/12/21 03:56:35;;;;;;;0.70;0.60;;;5.40;99.90;;;5.74;100.00;-20838.50;5013040;28;20918;-69
2020/12/21 03:59:02;;;;;;;0.60;0.60;;;5.40;99.90;;;5.69;100.00;-20837.13;5008480;28;20451;-69
2020/12/21 04:01:30;;;;;;;0.60;0.53;;;5.40;99.90;;;5.66;100.00;-20836.28;5015265;28;20496;-69
2020/12/21 04:03:56;;;;;;;0.70;0.60;;;5.40;99.90;;;5.69;100.00;-20837.13;5016991;28;20504;-69
2020/12/21 04:06:23;;;;;;;0.60;0.50;;;5.40;99.90;;;5.67;100.00;-20836.44;5016857;28;20438;-69
2020/12/21 04:08:50;;;;;;;0.70;0.63;;;5.30;99.90;;;5.78;100.00;-20839.63;5016535;28;20925;-69
2020/12/21 04:11:17;;;;;;;0.60;0.60;;;5.50;99.90;;;5.72;100.00;-20837.97;5016938;28;20475;-69
2020/12/21 04:13:44;;;;;;;0.60;0.60;;;5.40;99.90;;;5.74;100.00;-20838.38;5016992;28;20555;-69
2020/12/21 04:16:11;;;;;;;0.60;0.50;;;5.40;99.90;;;5.77;100.00;-20839.34;5016637;28;20487;-69
2020/12/21 04:18:39;;;;;;;0.60;0.50;;;5.40;99.90;;;5.80;100.00;-20840.19;5016867;28;20512;-69
2020/12/21 04:21:09;;;;;;;0.70;0.60;;;5.40;99.90;;;5.90;100.00;-20842.81;5013018;28;20933;-69
2020/12/21 04:23:36;;;;;;;0.70;0.70;;;5.50;99.90;;;6.02;100.00;-20846.16;4996967;28;20524;-70
2020/12/21 04:26:05;;;;;;;0.63;0.57;;;5.60;99.90;;;6.13;100.00;-20848.94;4996743;28;20434;-69
2020/12/21 04:28:33;;;;;;;0.60;0.60;;;5.70;99.90;;;6.19;100.00;-20850.75;4996588;28;20422;-69
2020/12/21 04:31:00;;;;;;;0.60;0.50;;;5.70;99.90;;;6.10;100.00;-20848.13;5015647;28;20449;-69
2020/12/21 04:33:29;;;;;;;0.60;0.60;;;5.70;99.90;;;6.16;100.00;-20849.78;5016342;28;20984;-69
2020/12/21 04:36:08;;;;;;;0.60;0.53;;;5.70;99.90;;;6.24;100.00;-20852.16;5016396;28;20512;-69
2020/12/21 04:38:37;;;;;;;0.60;0.50;;;5.80;99.90;;;6.25;100.00;-20852.41;5016844;28;20414;-69
2020/12/21 04:41:04;;;;;;;0.60;0.53;;;5.80;99.90;;;6.19;100.00;-20850.75;5016191;28;20487;-69
2020/12/21 04:43:32;;;;;;;0.60;0.60;;;5.70;99.90;;;6.23;100.00;-20851.88;5015681;28;20529;-69
2020/12/21 04:46:06;;;;;;;0.60;0.50;;;5.70;99.90;;;6.29;100.00;-20853.53;5016106;28;20477;-70
2020/12/21 04:48:39;;;;;;;0.60;0.50;;;5.80;99.90;;;6.32;100.00;-20854.09;5016195;28;20553;-69
2020/12/21 04:51:07;;;;;;;0.63;0.60;;;5.80;99.90;;;6.42;100.00;-20857.00;5016403;28;20991;-69
2020/12/21 04:53:37;;;;;;;0.60;0.60;;;5.90;99.90;;;6.46;100.00;-20858.00;5010715;28;20473;-69
2020/12/21 04:56:05;;;;;;;0.63;0.60;;;5.90;99.90;;;6.50;100.00;-20859.25;5015438;28;20441;-70
2020/12/21 04:58:32;;;;;;;0.70;0.70;;;5.90;99.90;;;6.52;100.00;-20859.66;5007219;28;20489;-69
2020/12/21 05:00:59;;;;;;;0.63;0.60;;;5.90;99.90;;;6.57;100.00;-20861.03;5011107;28;20434;-70
2020/12/21 05:03:26;;;;;;;0.60;0.60;;;6.00;99.90;;;6.57;100.00;-20860.91;5014969;28;20458;-70
2020/12/21 05:05:53;;;;;;;0.60;0.60;;;6.00;99.90;;;6.47;100.00;-20858.25;5014344;28;20507;-69
2020/12/21 05:08:23;;;;;;;1.67;1.57;;;5.90;99.90;;;6.55;100.00;-20860.47;5016173;28;20465;-70
2020/12/21 05:10:58;;;;;;;0.70;0.70;;;6.00;99.90;;;6.64;100.00;-20863.00;5015853;28;20440;-69
2020/12/21 05:13:26;;;;;;;0.60;0.50;;;6.00;99.90;;;6.71;100.00;-20864.78;5012783;28;20999;-69
2020/12/21 05:15:54;;;;;;;0.60;0.60;;;6.10;99.90;;;6.74;100.00;-20865.78;5015609;28;20449;-69
2020/12/21 05:18:24;;;;;;;0.60;0.60;;;6.20;99.90;;;6.80;100.00;-20867.28;5015653;28;20860;-69
2020/12/21 05:20:56;;;;;;;0.60;0.50;;;6.20;99.90;;;6.73;100.00;-20865.34;5015625;28;20466;-69
2020/12/21 05:23:24;;;;;;;0.60;0.60;;;6.10;99.90;;;6.62;100.00;-20862.28;5015644;28;20449;-70
2020/12/21 05:26:00;;;;;;;0.60;0.60;;;6.00;99.90;;;6.55;100.00;-20860.47;5015763;28;20918;-70
2020/12/21 05:28:30;;;;;;;0.60;0.60;;;6.00;99.90;;;6.57;100.00;-20860.91;5013784;28;20436;-69
2020/12/21 05:30:58;;;;;;;0.60;0.50;;;6.00;99.90;;;6.63;100.00;-20862.72;5003177;28;20511;-69
2020/12/21 05:33:26;;;;;;;0.60;0.60;;;6.10;99.90;;;6.73;100.00;-20865.50;5005028;28;20911;-69
2020/12/21 05:35:56;;;;;;;0.60;0.50;;;6.10;99.90;;;6.70;100.00;-20864.66;5008464;28;20474;-69
2020/12/21 05:38:27;;;;;;;0.60;0.50;;;6.20;99.90;;;6.71;100.00;-20864.94;4998801;28;20541;-70
2020/12/21 05:41:08;;;;;;;0.60;0.50;;;6.20;99.90;;;6.82;100.00;-20867.72;5008710;28;20548;-70
2020/12/21 05:43:38;;;;;;;0.60;0.50;;;6.10;99.90;;;6.72;100.00;-20865.06;5011971;28;20825;-69
2020/12/21 05:46:11;;;;;;;0.60;0.57;;;6.10;99.90;;;6.75;100.00;-20865.91;5015013;28;20469;-69
2020/12/21 05:48:41;;;;;;;0.60;0.60;;;6.20;99.90;;;6.80;100.00;-20867.16;5013877;28;20531;-69
2020/12/21 05:51:10;;;;;;;0.60;0.50;;;6.10;99.90;;;6.63;100.00;-20862.56;5015301;28;20500;-69
2020/12/21 05:53:42;;;;;;;0.60;0.50;;;6.00;99.90;;;6.67;100.00;-20863.81;5014989;28;20536;-70
2020/12/21 05:56:11;;;;;;;0.60;0.60;;;6.10;99.90;;;6.62;100.00;-20862.44;5014825;28;20417;-71
2020/12/21 05:58:40;;;;;;;0.70;0.60;;;6.10;99.90;;;6.71;100.00;-20864.94;5012372;28;20451;-71
2020/12/21 06:01:09;;;;;;;0.60;0.50;;;6.10;99.90;;;6.71;100.00;-20864.78;5013124;28;20976;-69
2020/12/21 06:03:42;;;;;;;0.60;0.57;;;6.10;99.90;;;6.64;100.00;-20863.00;5014740;28;20465;-69
2020/12/21 06:06:15;;;;;;;0.60;0.60;;;6.10;99.90;;;6.67;100.00;-20863.81;5011065;28;20457;-69
2020/12/21 06:08:44;;;;;;;0.60;0.60;;;6.20;99.90;;;6.67;100.00;-20863.81;5005836;28;20511;-69
2020/12/21 06:11:18;;;;;;;0.60;0.50;;;6.20;99.90;;;6.65;100.00;-20863.25;5014793;28;20438;-69
2020/12/21 06:13:59;;;;;;;0.63;0.60;;;6.20;99.90;;;6.67;100.00;-20863.81;5014593;28;20449;-69
2020/12/21 06:16:29;;;;;;;0.60;0.60;;;6.20;99.90;;;6.82;100.00;-20867.84;5013122;28;21004;-69
2020/12/21 06:19:04;;;;;;;0.60;0.60;;;6.30;99.90;;;6.80;100.00;-20867.16;5014549;28;20458;-71
2020/12/21 06:21:33;;;;;;;0.60;0.60;;;6.20;99.90;;;6.84;100.00;-20868.28;5013938;28;20410;-70
2020/12/21 06:24:02;;;;;;;0.70;0.70;;;6.30;99.90;;;6.86;100.00;-20868.81;5014960;28;20414;-69
2020/12/21 06:26:34;;;;;;;0.60;0.60;;;6.30;99.90;;;6.90;100.00;-20869.94;5013971;28;20446;-69
2020/12/21 06:29:05;;;;;;;0.60;0.50;;;6.30;99.90;;;6.91;100.00;-20870.34;5014300;28;20421;-69
2020/12/21 06:31:44;;;;;;;0.60;0.50;;;6.30;99.90;;;7.00;100.00;-20872.84;5005601;28;20474;-70
2020/12/21 06:34:14;;;;;;;3.13;1.87;;;6.40;99.90;;;7.06;100.00;-20874.38;4994541;28;20475;-69
2020/12/21 06:36:43;;;;;;;0.70;0.60;;;6.40;99.90;;;7.09;100.00;-20875.06;5011966;28;20450;-70
2020/12/21 06:39:22;;;;;;;0.60;0.60;;;6.40;99.90;;;7.10;100.00;-20875.34;5014248;28;20418;-69
2020/12/21 06:42:04;;;;;;;1.30;1.20;;;6.50;99.90;;;7.17;100.00;-20877.28;5014722;28;20422;-69
2020/12/21 06:44:31;;;;;;;0.60;0.60;;;6.50;99.90;;;7.16;100.00;-20877.16;5011758;28;20449;-70
2020/12/21 06:46:59;;;;;;;0.60;0.60;;;6.50;99.90;;;7.25;100.00;-20879.53;5006857;28;20422;-69
2020/12/21 06:49:27;;;;;;;0.60;0.60;;;6.60;99.90;;;7.31;100.00;-20881.19;5011789;28;20533;-69
2020/12/21 06:51:54;;;;;;;0.60;0.57;;;6.60;99.90;;;7.18;100.00;-20877.72;5013741;28;20540;-70
2020/12/21 06:54:21;;;;;;;0.70;0.60;;;6.60;99.90;;;7.19;100.00;-20878.00;5003296;28;20838;-69
2020/12/21 06:56:50;;;;;;;0.70;0.60;;;6.50;99.90;;;7.18;100.00;-20877.72;5003336;28;20505;-69
2020/12/21 06:59:19;;;;;;;0.60;0.50;;;6.50;99.90;;;7.11;100.00;-20875.78;5000026;28;20452;-69
2020/12/21 07:01:49;;;;;;;0.63;0.57;;;6.60;99.90;;;7.18;100.00;-20877.72;5012106;28;20515;-69
2020/12/21 07:04:18;;;;;;;0.60;0.53;;;6.50;99.90;;;7.14;100.00;-20876.59;5009662;28;20499;-69
2020/12/21 07:06:47;;;;;;;0.60;0.50;;;6.60;99.90;;;7.07;100.00;-20874.66;5000224;28;20456;-70
2020/12/21 07:09:21;;;;;;;0.70;0.60;;;6.50;99.90;;;7.04;100.00;-20873.69;5005285;28;20438;-70
2020/12/21 07:11:53;;;;;;;0.60;0.60;;;6.50;99.90;;;7.07;100.00;-20874.66;5002984;28;20865;-69
2020/12/21 07:14:22;;;;;;;0.60;0.60;;;6.50;99.90;;;7.21;100.00;-20878.53;5003310;28;20460;-69
2020/12/21 07:16:49;;;;;;;0.70;0.60;;;6.60;99.90;;;7.31;100.00;-20881.19;5013482;28;20926;-69
2020/12/21 07:19:16;;;;;;;0.60;0.60;;;6.70;99.90;;;7.31;100.00;-20881.06;5012356;28;20593;-69
2020/12/21 07:21:43;;;;;;;0.70;0.60;;;6.70;99.90;;;7.28;100.00;-20880.22;5013840;28;20815;-69
2020/12/21 07:24:10;;;;;;;0.60;0.57;;;6.70;99.90;;;7.40;100.00;-20883.53;5000081;28;20442;-69
2020/12/21 07:26:39;;;;;;;0.60;0.60;;;6.80;99.90;;;7.40;100.00;-20883.69;5006333;28;20950;-69
2020/12/21 07:29:07;;;;;;;0.60;0.50;;;6.80;99.90;;;7.37;100.00;-20882.72;5013013;28;20463;-69
2020/12/21 07:31:35;;;;;;;0.60;0.50;;;6.80;99.90;;;7.47;100.00;-20885.50;5013738;28;20943;-69
2020/12/21 07:34:02;;;;;;;0.60;0.50;;;6.80;99.90;;;7.56;100.00;-20887.84;5006046;28;20476;-69
2020/12/21 07:36:34;;;;;;;0.60;0.53;;;6.80;99.90;;;7.43;100.00;-20884.53;4997957;28;20426;-69
2020/12/21 07:39:07;;;;;;;0.60;0.60;;;6.90;99.90;;;7.58;100.00;-20888.53;5013094;28;20438;-69
2020/12/21 07:41:37;;;;;;;0.60;0.60;;;6.90;99.90;;;7.68;100.00;-20891.31;5015567;28;20445;-69
2020/12/21 07:44:13;;;;;;;0.70;0.60;;;6.90;99.90;;;7.57;100.00;-20888.28;5017217;28;20553;-69
2020/12/21 07:46:45;;;;;;;0.63;0.60;;;6.90;99.90;;;7.56;100.00;-20888.00;5016109;28;20537;-69
2020/12/21 07:49:13;;;;;;;0.63;0.57;;;7.00;99.90;;;7.70;100.00;-20891.75;5016829;28;20957;-69
2020/12/21 07:51:45;;;;;;;0.60;0.60;;;7.00;99.90;;;7.79;100.00;-20894.09;5017359;28;20846;-69
2020/12/21 07:54:13;;;;;;;0.60;0.50;;;7.10;99.90;;;7.74;100.00;-20892.84;5011725;28;20466;-69
2020/12/21 07:56:42;;;;;;;0.70;0.60;;;7.10;99.90;;;7.79;100.00;-20894.09;5013752;28;20471;-69
2020/12/21 07:59:18;;;;;;;0.60;0.60;;;7.10;99.90;;;7.85;100.00;-20895.91;4997546;28;20921;-69
2020/12/21 08:01:46;;;;;;;0.70;0.60;;;7.10;99.90;;;7.80;100.00;-20894.38;5014982;28;20807;-69
2020/12/21 08:04:17;;;;;;;0.60;0.60;;;7.10;99.90;;;7.91;100.00;-20897.44;5017094;28;20783;-69
2020/12/21 08:06:47;;;;;;;0.60;0.60;;;7.20;99.90;;;7.95;100.00;-20898.53;5009706;28;20450;-69
2020/12/21 08:09:15;;;;;;;0.70;0.60;;;7.20;99.90;;;7.98;100.00;-20899.38;5017464;28;20428;-69
2020/12/21 08:11:43;;;;;;;0.60;0.50;;;7.20;99.90;;;7.91;100.00;-20897.44;5012031;28;20439;-69
2020/12/21 08:14:17;;;;;;;0.60;0.60;;;7.30;99.90;;;7.93;100.00;-20898.13;5007237;28;20988;-69
2020/12/21 08:16:44;;;;;;;0.70;0.60;;;7.30;99.90;;;8.01;100.00;-20900.19;5017012;28;20437;-69
2020/12/21 08:19:20;;;;;;;0.60;0.50;;;7.40;99.90;;;8.04;100.00;-20900.91;5016553;28;20809;-69
2020/12/21 08:21:48;;;;;;;0.70;0.60;;;7.40;99.90;;;8.26;100.00;-20906.88;5008653;28;20427;-69
2020/12/21 08:24:16;;;;;;;0.63;0.60;;;7.40;99.90;;;8.14;100.00;-20903.69;5010576;28;20529;-69
2020/12/21 08:26:45;;;;;;;0.70;0.60;;;7.40;99.90;;;8.20;100.00;-20905.34;5016354;28;20435;-69
2020/12/21 08:29:19;;;;;;;0.70;0.60;;;7.50;99.90;;;8.22;100.00;-20906.03;5011224;28;20430;-69
2020/12/21 08:31:47;;;;;;;0.70;0.60;;;7.50;99.90;;;8.17;100.00;-20904.66;5016904;28;20424;-69
2020/12/21 08:34:16;;;;;;;0.60;0.50;;;7.50;99.90;;;8.27;100.00;-20907.13;5014736;28;20474;-69
2020/12/21 08:36:43;;;;;;;0.70;0.70;;;7.50;99.90;;;8.26;100.00;-20906.88;5031552;28;20450;-69
2020/12/21 08:39:14;;;;;;;0.70;0.60;;;7.60;99.90;;;8.49;100.00;-20913.25;5031082;28;20815;-69
2020/12/21 08:41:44;;;;;;;0.70;0.50;;;7.60;99.90;;;8.48;100.00;-20912.97;5016710;28;20419;-69
2020/12/21 08:44:20;;;;;;;0.70;0.60;;;7.70;99.90;;;8.48;100.00;-20912.97;5015713;28;20493;-69
2020/12/21 08:46:51;;;;;;;1.07;0.97;;;7.70;99.90;;;8.51;100.00;-20913.66;5016167;28;20444;-69
2020/12/21 08:49:18;;;;;;;0.70;0.60;;;7.70;99.90;;;8.49;100.00;-20913.25;5016434;28;20555;-69
2020/12/21 08:51:45;;;;;;;0.70;0.60;;;7.70;99.90;;;8.50;100.00;-20913.53;5016173;28;20925;-69
2020/12/21 08:54:12;;;;;;;0.63;0.50;;;7.70;99.90;;;8.66;100.00;-20917.97;5015892;28;20463;-69
2020/12/21 08:56:44;;;;;;;0.70;0.53;;;7.80;99.90;;;8.62;100.00;-20916.84;5014002;28;20456;-69
2020/12/21 08:59:11;;;;;;;0.60;0.50;;;7.80;99.90;;;8.65;100.00;-20917.69;5013074;28;20454;-69
2020/12/21 09:01:41;;;;;;;0.70;0.60;;;7.80;99.90;;;8.77;100.00;-20920.75;5007844;28;20438;-69
2020/12/21 09:04:09;;;;;;;0.70;0.60;;;7.80;99.90;;;8.57;100.00;-20915.47;5014509;28;20514;-69
2020/12/21 09:06:36;;;;;;;0.70;0.60;;;7.80;99.90;;;8.56;100.00;-20915.19;4998252;28;20461;-69
2020/12/21 09:09:06;;;;;;;0.70;0.60;;;7.80;99.90;;;8.62;100.00;-20916.84;4996618;28;20624;-69
2020/12/21 09:11:33;;;;;;;0.70;0.60;;;7.90;99.90;;;8.53;100.00;-20914.34;4996469;28;20435;-69
2020/12/21 09:14:01;;;;;;;0.70;0.60;;;7.90;99.90;;;8.83;100.00;-20922.41;5006958;28;20527;-69
2020/12/21 09:16:30;;;;;;;1.03;1.03;;;7.90;99.90;;;8.84;100.00;-20922.81;5015358;28;20463;-69
2020/12/21 09:18:59;;;;;;;0.60;0.60;;;8.00;99.90;;;8.84;100.00;-20922.69;5015513;28;20558;-69
2020/12/21 09:21:28;;;;;;;0.70;0.60;;;8.00;99.90;;;8.82;100.00;-20922.13;5014859;28;20470;-69
2020/12/21 09:23:58;;;;;;;0.70;0.70;;;8.00;99.90;;;8.67;100.00;-20918.09;4996541;28;20422;-70
2020/12/21 09:26:25;;;;;;;0.70;0.60;;;8.00;99.90;;;8.93;100.00;-20925.16;5016823;28;20442;-69
2020/12/21 09:28:54;;;;;;;0.70;0.63;;;8.00;99.90;;;8.92;100.00;-20924.91;5008110;28;20472;-69
2020/12/21 09:31:23;;;;;;;0.70;0.60;;;8.00;99.90;;;8.86;100.00;-20923.38;5012758;28;20489;-69
2020/12/21 09:33:51;;;;;;;0.70;0.67;;;8.00;99.90;;;8.90;100.00;-20924.34;5015468;28;20478;-70
2020/12/21 09:36:20;;;;;;;0.70;0.60;;;8.10;99.90;;;9.01;100.00;-20927.38;5013229;28;20774;-69
2020/12/21 09:38:49;;;;;;;0.67;0.60;;;8.10;99.90;;;9.16;100.00;-20931.53;5015476;28;20428;-69
2020/12/21 09:41:19;;;;;;;0.90;0.90;;;8.20;99.90;;;8.94;100.00;-20925.44;5014890;28;20934;-69
2020/12/21 09:43:48;;;;;;;0.70;0.60;;;8.20;99.90;;;9.04;100.00;-20928.22;5002859;28;20937;-69
2020/12/21 09:46:19;;;;;;;0.60;0.53;;;8.20;99.90;;;9.14;100.00;-20931.00;5002785;28;20441;-69
2020/12/21 09:48:47;;;;;;;0.60;0.50;;;8.30;99.90;;;9.13;100.00;-20930.72;5011227;28;20463;-69
2020/12/21 09:51:15;;;;;;;0.70;0.60;;;8.30;99.90;;;9.40;100.00;-20937.91;5014712;28;20452;-69
2020/12/21 09:53:44;;;;;;;0.70;0.60;;;8.30;99.90;;;9.49;100.00;-20940.41;5014699;28;20552;-69
2020/12/21 09:56:11;;;;;;;0.70;0.60;;;8.40;99.90;;;9.38;100.00;-20937.38;5012115;28;20833;-69
2020/12/21 09:58:40;;;;;;;0.70;0.60;;;8.50;99.90;;;9.54;100.00;-20941.81;5010643;28;20524;-69
2020/12/21 10:01:08;;;;;;;0.70;0.60;;;8.50;99.90;;;9.48;100.00;-20940.13;4996852;28;20521;-69
2020/12/21 10:03:38;;;;;;;0.70;0.60;;;8.60;99.90;;;9.66;100.00;-20945.13;5012614;28;20464;-69
2020/12/21 10:06:07;;;;;;;0.70;0.60;;;8.60;99.90;;;9.71;100.00;-20946.22;5014646;28;20445;-70
2020/12/21 10:08:34;;;;;;;0.70;0.60;;;8.70;99.90;;;9.61;100.00;-20943.75;5014824;28;20455;-70
2020/12/21 10:11:03;;;;;;;0.60;0.50;;;8.70;99.90;;;9.80;100.00;-20948.72;5014949;28;20479;-69
2020/12/21 10:13:30;;;;;;;0.70;0.60;;;8.70;99.90;;;9.78;100.00;-20948.16;5018348;28;20463;-70
2020/12/21 10:15:57;;;;;;;0.70;0.60;;;8.80;99.90;;;9.74;100.00;-20947.06;4997771;28;20941;-69
2020/12/21 10:18:24;;;;;;;1.17;1.07;;;8.80;99.90;;;9.89;100.00;-20951.22;4998999;28;20507;-69
2020/12/21 10:20:51;;;;;;;0.70;0.60;;;8.80;99.90;;;10.06;100.00;-20955.78;5014166;28;20933;-69
2020/12/21 10:23:18;;;;;;;0.70;0.60;;;8.80;99.90;;;9.77;100.00;-20947.88;5013825;28;20476;-69
2020/12/21 10:25:44;;;;;;;0.70;0.60;;;8.80;99.90;;;9.90;100.00;-20951.50;5013217;28;20446;-69
2020/12/21 10:28:12;;;;;;;0.70;0.70;;;8.90;99.90;;;9.92;100.00;-20952.19;5014194;28;20855;-69